sensor_id;sensor_type;location;lat;lon;timestamp;temperature;humidity
19220;DHT22;9744;49.364;7.484;2023-06-14T00:02:25;21.20;69.30
19220;DHT22;9744;49.364;7.484;2023-06-14T00:04:52;21.10;69.40
19220;DHT22;9744;49.364;7.484;2023-06-14T00:07:34;20.90;69.90
19220;DHT22;9744;49.364;7.484;2023-06-14T00:10:02;20.80;70.10
19220;DHT22;9744;49.364;7.484;2023-06-14T00:12:30;20.70;70.20
19220;DHT22;9744;49.364;7.484;2023-06-14T00:14:57;20.60;70.60
19220;DHT22;9744;49.364;7.484;2023-06-14T00:17:27;20.60;70.60
19220;DHT22;9744;49.364;7.484;2023-06-14T00:19:56;20.60;71.40
19220;DHT22;9744;49.364;7.484;2023-06-14T00:22:25;20.60;70.70
19220;DHT22;9744;49.364;7.484;2023-06-14T00:24:54;20.60;70.40
19220;DHT22;9744;49.364;7.484;2023-06-14T00:27:22;20.60;70.80
19220;DHT22;9744;49.364;7.484;2023-06-14T00:29:50;20.50;70.60
19220;DHT22;9744;49.364;7.484;2023-06-14T00:32:19;20.60;70.20
19220;DHT22;9744;49.364;7.484;2023-06-14T00:34:50;20.70;70.30
19220;DHT22;9744;49.364;7.484;2023-06-14T00:37:17;20.70;70.50
19220;DHT22;9744;49.364;7.484;2023-06-14T00:39:46;20.60;70.50
19220;DHT22;9744;49.364;7.484;2023-06-14T00:42:23;20.60;70.50
19220;DHT22;9744;49.364;7.484;2023-06-14T00:44:50;20.60;70.50
19220;DHT22;9744;49.364;7.484;2023-06-14T00:47:18;20.60;70.60
19220;DHT22;9744;49.364;7.484;2023-06-14T00:49:46;20.50;70.70
19220;DHT22;9744;49.364;7.484;2023-06-14T00:52:15;20.60;70.20
19220;DHT22;9744;49.364;7.484;2023-06-14T00:54:43;20.70;70.10
19220;DHT22;9744;49.364;7.484;2023-06-14T00:57:13;20.90;69.80
19220;DHT22;9744;49.364;7.484;2023-06-14T00:59:43;21.00;69.60
19220;DHT22;9744;49.364;7.484;2023-06-14T01:02:11;21.10;69.50
19220;DHT22;9744;49.364;7.484;2023-06-14T01:04:39;21.20;69.30
19220;DHT22;9744;49.364;7.484;2023-06-14T01:07:13;21.10;69.20
19220;DHT22;9744;49.364;7.484;2023-06-14T01:09:51;21.20;69.40
19220;DHT22;9744;49.364;7.484;2023-06-14T01:12:31;21.20;69.20
19220;DHT22;9744;49.364;7.484;2023-06-14T01:15:01;21.10;69.50
19220;DHT22;9744;49.364;7.484;2023-06-14T01:17:30;21.00;69.60
19220;DHT22;9744;49.364;7.484;2023-06-14T01:19:58;21.00;69.70
19220;DHT22;9744;49.364;7.484;2023-06-14T01:22:28;20.90;69.70
19220;DHT22;9744;49.364;7.484;2023-06-14T01:24:58;20.90;69.60
19220;DHT22;9744;49.364;7.484;2023-06-14T01:27:26;20.90;70.00
19220;DHT22;9744;49.364;7.484;2023-06-14T01:29:55;20.80;70.10
19220;DHT22;9744;49.364;7.484;2023-06-14T01:32:24;20.70;70.20
19220;DHT22;9744;49.364;7.484;2023-06-14T01:34:53;20.70;70.10
19220;DHT22;9744;49.364;7.484;2023-06-14T01:37:21;20.60;70.30
19220;DHT22;9744;49.364;7.484;2023-06-14T01:39:49;20.60;70.70
19220;DHT22;9744;49.364;7.484;2023-06-14T01:42:21;20.50;70.60
19220;DHT22;9744;49.364;7.484;2023-06-14T01:44:49;20.50;70.60
19220;DHT22;9744;49.364;7.484;2023-06-14T01:47:19;20.50;70.70
19220;DHT22;9744;49.364;7.484;2023-06-14T01:49:48;20.50;70.80
19220;DHT22;9744;49.364;7.484;2023-06-14T01:52:15;20.40;70.60
19220;DHT22;9744;49.364;7.484;2023-06-14T01:54:45;20.40;70.90
19220;DHT22;9744;49.364;7.484;2023-06-14T01:57:13;20.40;70.70
19220;DHT22;9744;49.364;7.484;2023-06-14T01:59:42;20.40;70.60
19220;DHT22;9744;49.364;7.484;2023-06-14T02:02:14;20.40;70.70
19220;DHT22;9744;49.364;7.484;2023-06-14T02:04:42;20.40;70.90
19220;DHT22;9744;49.364;7.484;2023-06-14T02:07:09;20.30;71.10
19220;DHT22;9744;49.364;7.484;2023-06-14T02:09:36;20.30;71.40
19220;DHT22;9744;49.364;7.484;2023-06-14T02:12:04;20.30;71.00
19220;DHT22;9744;49.364;7.484;2023-06-14T02:14:32;20.10;71.30
19220;DHT22;9744;49.364;7.484;2023-06-14T02:17:00;20.10;71.60
19220;DHT22;9744;49.364;7.484;2023-06-14T02:19:28;20.10;71.50
19220;DHT22;9744;49.364;7.484;2023-06-14T02:21:56;20.10;71.70
19220;DHT22;9744;49.364;7.484;2023-06-14T02:24:23;20.10;71.30
19220;DHT22;9744;49.364;7.484;2023-06-14T02:26:51;20.10;71.60
19220;DHT22;9744;49.364;7.484;2023-06-14T02:29:18;20.10;71.40
19220;DHT22;9744;49.364;7.484;2023-06-14T02:31:45;20.10;71.60
19220;DHT22;9744;49.364;7.484;2023-06-14T02:34:15;20.10;71.60
19220;DHT22;9744;49.364;7.484;2023-06-14T02:36:46;20.10;71.70
19220;DHT22;9744;49.364;7.484;2023-06-14T02:39:14;20.00;71.80
19220;DHT22;9744;49.364;7.484;2023-06-14T02:41:43;19.90;72.20
19220;DHT22;9744;49.364;7.484;2023-06-14T02:44:10;19.80;72.30
19220;DHT22;9744;49.364;7.484;2023-06-14T02:46:38;19.80;72.20
19220;DHT22;9744;49.364;7.484;2023-06-14T02:49:06;19.80;72.40
19220;DHT22;9744;49.364;7.484;2023-06-14T02:51:34;19.70;72.70
19220;DHT22;9744;49.364;7.484;2023-06-14T02:54:02;19.50;73.10
19220;DHT22;9744;49.364;7.484;2023-06-14T02:56:29;19.50;73.30
19220;DHT22;9744;49.364;7.484;2023-06-14T02:58:57;19.40;73.20
19220;DHT22;9744;49.364;7.484;2023-06-14T03:01:27;19.40;73.40
19220;DHT22;9744;49.364;7.484;2023-06-14T03:04:03;19.40;73.80
19220;DHT22;9744;49.364;7.484;2023-06-14T03:06:35;19.40;73.90
19220;DHT22;9744;49.364;7.484;2023-06-14T03:09:04;19.40;73.70
19220;DHT22;9744;49.364;7.484;2023-06-14T03:11:32;19.40;73.60
19220;DHT22;9744;49.364;7.484;2023-06-14T03:14:00;19.40;73.70
19220;DHT22;9744;49.364;7.484;2023-06-14T03:16:29;19.40;73.80
19220;DHT22;9744;49.364;7.484;2023-06-14T03:18:58;19.40;73.90
19220;DHT22;9744;49.364;7.484;2023-06-14T03:21:28;19.40;73.50
19220;DHT22;9744;49.364;7.484;2023-06-14T03:24:00;19.40;73.70
19220;DHT22;9744;49.364;7.484;2023-06-14T03:26:28;19.40;73.50
19220;DHT22;9744;49.364;7.484;2023-06-14T03:28:56;19.40;73.60
19220;DHT22;9744;49.364;7.484;2023-06-14T03:31:23;19.40;73.50
19220;DHT22;9744;49.364;7.484;2023-06-14T03:33:51;19.40;73.60
19220;DHT22;9744;49.364;7.484;2023-06-14T03:36:19;19.50;73.70
19220;DHT22;9744;49.364;7.484;2023-06-14T03:39:03;19.40;73.60
19220;DHT22;9744;49.364;7.484;2023-06-14T03:41:30;19.40;73.60
19220;DHT22;9744;49.364;7.484;2023-06-14T03:43:58;19.30;74.20
19220;DHT22;9744;49.364;7.484;2023-06-14T03:46:25;19.20;74.00
19220;DHT22;9744;49.364;7.484;2023-06-14T03:48:53;19.20;74.50
19220;DHT22;9744;49.364;7.484;2023-06-14T03:51:21;19.20;74.50
19220;DHT22;9744;49.364;7.484;2023-06-14T03:53:48;19.20;74.60
19220;DHT22;9744;49.364;7.484;2023-06-14T03:56:17;19.20;75.10
19220;DHT22;9744;49.364;7.484;2023-06-14T03:58:46;19.00;75.10
19220;DHT22;9744;49.364;7.484;2023-06-14T04:01:13;19.00;75.10
19220;DHT22;9744;49.364;7.484;2023-06-14T04:03:41;18.90;75.40
19220;DHT22;9744;49.364;7.484;2023-06-14T04:06:08;18.90;75.20
19220;DHT22;9744;49.364;7.484;2023-06-14T04:08:35;18.90;75.70
19220;DHT22;9744;49.364;7.484;2023-06-14T04:11:05;18.80;75.80
19220;DHT22;9744;49.364;7.484;2023-06-14T04:13:35;18.90;75.60
19220;DHT22;9744;49.364;7.484;2023-06-14T04:16:09;19.00;75.70
19220;DHT22;9744;49.364;7.484;2023-06-14T04:18:36;19.00;75.60
19220;DHT22;9744;49.364;7.484;2023-06-14T04:21:03;19.10;75.50
19220;DHT22;9744;49.364;7.484;2023-06-14T04:23:32;19.10;75.40
19220;DHT22;9744;49.364;7.484;2023-06-14T04:26:30;19.10;75.60
19220;DHT22;9744;49.364;7.484;2023-06-14T04:29:00;19.20;75.90
19220;DHT22;9744;49.364;7.484;2023-06-14T04:31:30;19.20;75.90
19220;DHT22;9744;49.364;7.484;2023-06-14T04:34:00;19.20;75.70
19220;DHT22;9744;49.364;7.484;2023-06-14T04:36:31;19.30;76.00
19220;DHT22;9744;49.364;7.484;2023-06-14T04:39:00;19.30;76.10
19220;DHT22;9744;49.364;7.484;2023-06-14T04:41:30;19.40;77.00
19220;DHT22;9744;49.364;7.484;2023-06-14T04:44:01;19.40;76.10
19220;DHT22;9744;49.364;7.484;2023-06-14T04:46:59;19.50;76.30
19220;DHT22;9744;49.364;7.484;2023-06-14T04:49:26;19.40;76.50
19220;DHT22;9744;49.364;7.484;2023-06-14T04:51:56;19.50;77.40
19220;DHT22;9744;49.364;7.484;2023-06-14T04:54:28;19.50;76.50
19220;DHT22;9744;49.364;7.484;2023-06-14T04:56:57;19.60;76.20
19220;DHT22;9744;49.364;7.484;2023-06-14T04:59:27;19.70;76.30
19220;DHT22;9744;49.364;7.484;2023-06-14T05:01:59;19.80;76.30
19220;DHT22;9744;49.364;7.484;2023-06-14T05:04:27;19.90;76.30
19220;DHT22;9744;49.364;7.484;2023-06-14T05:06:56;20.00;76.10
19220;DHT22;9744;49.364;7.484;2023-06-14T05:09:24;20.00;77.10
19220;DHT22;9744;49.364;7.484;2023-06-14T05:11:52;20.00;76.70
19220;DHT22;9744;49.364;7.484;2023-06-14T05:14:20;20.00;76.80
19220;DHT22;9744;49.364;7.484;2023-06-14T05:16:51;19.90;76.80
19220;DHT22;9744;49.364;7.484;2023-06-14T05:19:19;20.00;76.90
19220;DHT22;9744;49.364;7.484;2023-06-14T05:21:46;20.00;76.80
19220;DHT22;9744;49.364;7.484;2023-06-14T05:24:15;20.10;76.70
19220;DHT22;9744;49.364;7.484;2023-06-14T05:26:43;20.30;76.50
19220;DHT22;9744;49.364;7.484;2023-06-14T05:29:11;20.50;76.30
19220;DHT22;9744;49.364;7.484;2023-06-14T05:31:38;20.50;76.10
19220;DHT22;9744;49.364;7.484;2023-06-14T05:34:06;20.60;76.00
19220;DHT22;9744;49.364;7.484;2023-06-14T05:36:34;20.70;75.90
19220;DHT22;9744;49.364;7.484;2023-06-14T05:39:02;20.80;75.70
19220;DHT22;9744;49.364;7.484;2023-06-14T05:41:31;20.80;75.80
19220;DHT22;9744;49.364;7.484;2023-06-14T05:43:58;20.90;75.90
19220;DHT22;9744;49.364;7.484;2023-06-14T05:46:26;20.90;75.80
19220;DHT22;9744;49.364;7.484;2023-06-14T05:48:54;21.00;75.90
19220;DHT22;9744;49.364;7.484;2023-06-14T05:51:23;20.90;76.10
19220;DHT22;9744;49.364;7.484;2023-06-14T05:53:52;21.00;76.10
19220;DHT22;9744;49.364;7.484;2023-06-14T05:56:20;21.00;76.20
19220;DHT22;9744;49.364;7.484;2023-06-14T05:58:47;21.10;76.10
19220;DHT22;9744;49.364;7.484;2023-06-14T06:01:15;21.30;76.00
19220;DHT22;9744;49.364;7.484;2023-06-14T06:03:42;21.40;76.10
19220;DHT22;9744;49.364;7.484;2023-06-14T06:06:12;21.50;75.80
19220;DHT22;9744;49.364;7.484;2023-06-14T06:08:41;21.60;75.60
19220;DHT22;9744;49.364;7.484;2023-06-14T06:11:08;21.60;75.90
19220;DHT22;9744;49.364;7.484;2023-06-14T06:13:36;21.60;75.70
19220;DHT22;9744;49.364;7.484;2023-06-14T06:16:04;21.60;75.80
19220;DHT22;9744;49.364;7.484;2023-06-14T06:18:32;21.80;76.00
19220;DHT22;9744;49.364;7.484;2023-06-14T06:21:00;21.90;75.80
19220;DHT22;9744;49.364;7.484;2023-06-14T06:23:29;22.00;75.60
19220;DHT22;9744;49.364;7.484;2023-06-14T06:25:58;22.00;75.80
19220;DHT22;9744;49.364;7.484;2023-06-14T06:28:25;22.10;75.30
19220;DHT22;9744;49.364;7.484;2023-06-14T06:30:52;22.10;75.50
19220;DHT22;9744;49.364;7.484;2023-06-14T06:33:21;22.10;75.80
19220;DHT22;9744;49.364;7.484;2023-06-14T06:35:48;22.20;75.90
19220;DHT22;9744;49.364;7.484;2023-06-14T06:38:16;22.40;75.40
19220;DHT22;9744;49.364;7.484;2023-06-14T06:40:44;22.50;75.60
19220;DHT22;9744;49.364;7.484;2023-06-14T06:43:13;22.60;75.40
19220;DHT22;9744;49.364;7.484;2023-06-14T06:45:45;22.70;75.40
19220;DHT22;9744;49.364;7.484;2023-06-14T06:48:13;22.90;75.30
19220;DHT22;9744;49.364;7.484;2023-06-14T06:50:41;23.00;75.20
19220;DHT22;9744;49.364;7.484;2023-06-14T06:53:09;23.20;75.10
19220;DHT22;9744;49.364;7.484;2023-06-14T06:55:36;23.20;75.40
19220;DHT22;9744;49.364;7.484;2023-06-14T06:58:03;23.30;75.20
19220;DHT22;9744;49.364;7.484;2023-06-14T07:00:32;23.40;75.20
19220;DHT22;9744;49.364;7.484;2023-06-14T07:03:00;23.60;74.80
19220;DHT22;9744;49.364;7.484;2023-06-14T07:05:29;23.80;75.00
19220;DHT22;9744;49.364;7.484;2023-06-14T07:07:57;23.90;74.80
19220;DHT22;9744;49.364;7.484;2023-06-14T07:10:25;24.00;74.50
19220;DHT22;9744;49.364;7.484;2023-06-14T07:12:53;24.10;74.80
19220;DHT22;9744;49.364;7.484;2023-06-14T07:15:21;24.30;74.30
19220;DHT22;9744;49.364;7.484;2023-06-14T07:17:50;24.50;74.50
19220;DHT22;9744;49.364;7.484;2023-06-14T07:20:19;24.60;74.40
19220;DHT22;9744;49.364;7.484;2023-06-14T07:22:48;24.80;74.70
19220;DHT22;9744;49.364;7.484;2023-06-14T07:25:15;25.00;74.10
19220;DHT22;9744;49.364;7.484;2023-06-14T07:27:46;25.10;74.30
19220;DHT22;9744;49.364;7.484;2023-06-14T07:30:16;25.10;74.20
19220;DHT22;9744;49.364;7.484;2023-06-14T07:32:44;25.30;74.30
19220;DHT22;9744;49.364;7.484;2023-06-14T07:35:13;25.60;73.60
19220;DHT22;9744;49.364;7.484;2023-06-14T07:37:40;25.70;73.20
19220;DHT22;9744;49.364;7.484;2023-06-14T07:40:09;25.90;72.80
19220;DHT22;9744;49.364;7.484;2023-06-14T07:42:36;26.00;72.90
19220;DHT22;9744;49.364;7.484;2023-06-14T07:45:05;26.20;71.50
19220;DHT22;9744;49.364;7.484;2023-06-14T07:47:33;26.20;71.20
19220;DHT22;9744;49.364;7.484;2023-06-14T07:50:01;26.20;70.90
19220;DHT22;9744;49.364;7.484;2023-06-14T07:52:32;26.50;70.70
19220;DHT22;9744;49.364;7.484;2023-06-14T07:55:00;26.50;70.00
19220;DHT22;9744;49.364;7.484;2023-06-14T07:57:28;26.70;70.20
19220;DHT22;9744;49.364;7.484;2023-06-14T07:59:55;27.00;70.00
19220;DHT22;9744;49.364;7.484;2023-06-14T08:02:26;27.20;69.30
19220;DHT22;9744;49.364;7.484;2023-06-14T08:04:54;27.20;69.20
19220;DHT22;9744;49.364;7.484;2023-06-14T08:07:21;27.10;69.90
19220;DHT22;9744;49.364;7.484;2023-06-14T08:09:50;27.10;70.10
19220;DHT22;9744;49.364;7.484;2023-06-14T08:12:17;27.40;70.20
19220;DHT22;9744;49.364;7.484;2023-06-14T08:14:45;27.40;69.40
19220;DHT22;9744;49.364;7.484;2023-06-14T08:17:12;27.70;69.50
19220;DHT22;9744;49.364;7.484;2023-06-14T08:19:39;27.90;69.00
19220;DHT22;9744;49.364;7.484;2023-06-14T08:22:13;28.00;69.40
19220;DHT22;9744;49.364;7.484;2023-06-14T08:24:42;28.00;68.30
19220;DHT22;9744;49.364;7.484;2023-06-14T08:27:11;28.10;68.00
19220;DHT22;9744;49.364;7.484;2023-06-14T08:29:39;28.50;68.30
19220;DHT22;9744;49.364;7.484;2023-06-14T08:32:07;28.70;68.20
19220;DHT22;9744;49.364;7.484;2023-06-14T08:34:35;28.90;67.70
19220;DHT22;9744;49.364;7.484;2023-06-14T08:37:02;29.20;67.40
19220;DHT22;9744;49.364;7.484;2023-06-14T08:39:56;29.40;67.30
19220;DHT22;9744;49.364;7.484;2023-06-14T08:42:26;29.60;66.10
19220;DHT22;9744;49.364;7.484;2023-06-14T08:44:53;29.70;65.70
19220;DHT22;9744;49.364;7.484;2023-06-14T08:47:21;29.70;65.70
19220;DHT22;9744;49.364;7.484;2023-06-14T08:49:53;30.00;66.00
19220;DHT22;9744;49.364;7.484;2023-06-14T08:52:25;30.30;65.60
19220;DHT22;9744;49.364;7.484;2023-06-14T08:54:56;30.60;65.50
19220;DHT22;9744;49.364;7.484;2023-06-14T08:57:28;30.60;65.30
19220;DHT22;9744;49.364;7.484;2023-06-14T08:59:58;30.70;65.10
19220;DHT22;9744;49.364;7.484;2023-06-14T09:02:31;30.80;64.10
19220;DHT22;9744;49.364;7.484;2023-06-14T09:05:01;30.70;63.90
19220;DHT22;9744;49.364;7.484;2023-06-14T09:07:29;30.70;64.50
19220;DHT22;9744;49.364;7.484;2023-06-14T09:10:07;30.90;64.20
19220;DHT22;9744;49.364;7.484;2023-06-14T09:12:36;31.20;64.50
19220;DHT22;9744;49.364;7.484;2023-06-14T09:15:05;31.30;64.10
19220;DHT22;9744;49.364;7.484;2023-06-14T09:17:34;31.30;62.90
19220;DHT22;9744;49.364;7.484;2023-06-14T09:20:02;31.40;63.50
19220;DHT22;9744;49.364;7.484;2023-06-14T09:22:35;31.80;63.10
19220;DHT22;9744;49.364;7.484;2023-06-14T09:25:02;32.00;63.20
19220;DHT22;9744;49.364;7.484;2023-06-14T09:27:31;32.10;62.50
19220;DHT22;9744;49.364;7.484;2023-06-14T09:30:01;32.10;61.80
19220;DHT22;9744;49.364;7.484;2023-06-14T09:32:28;32.20;61.50
19220;DHT22;9744;49.364;7.484;2023-06-14T09:34:56;32.20;61.60
19220;DHT22;9744;49.364;7.484;2023-06-14T09:37:28;32.10;62.40
19220;DHT22;9744;49.364;7.484;2023-06-14T09:39:57;32.10;62.70
19220;DHT22;9744;49.364;7.484;2023-06-14T09:42:25;32.20;62.60
19220;DHT22;9744;49.364;7.484;2023-06-14T09:45:08;32.30;63.20
19220;DHT22;9744;49.364;7.484;2023-06-14T09:47:38;32.50;62.40
19220;DHT22;9744;49.364;7.484;2023-06-14T09:50:07;32.60;61.10
19220;DHT22;9744;49.364;7.484;2023-06-14T09:52:34;32.70;60.70
19220;DHT22;9744;49.364;7.484;2023-06-14T09:55:10;32.80;60.00
19220;DHT22;9744;49.364;7.484;2023-06-14T09:57:41;33.00;60.10
19220;DHT22;9744;49.364;7.484;2023-06-14T10:00:13;33.20;60.10
19220;DHT22;9744;49.364;7.484;2023-06-14T10:02:43;33.50;59.70
19220;DHT22;9744;49.364;7.484;2023-06-14T10:05:15;33.70;59.20
19220;DHT22;9744;49.364;7.484;2023-06-14T10:07:52;34.00;58.90
19220;DHT22;9744;49.364;7.484;2023-06-14T10:10:20;34.10;58.60
19220;DHT22;9744;49.364;7.484;2023-06-14T10:12:48;34.10;59.00
19220;DHT22;9744;49.364;7.484;2023-06-14T10:15:20;34.00;59.70
19220;DHT22;9744;49.364;7.484;2023-06-14T10:17:53;33.90;59.70
19220;DHT22;9744;49.364;7.484;2023-06-14T10:20:30;33.90;59.80
19220;DHT22;9744;49.364;7.484;2023-06-14T10:23:03;34.00;58.80
19220;DHT22;9744;49.364;7.484;2023-06-14T10:25:34;34.20;59.20
19220;DHT22;9744;49.364;7.484;2023-06-14T10:28:18;34.40;58.80
19220;DHT22;9744;49.364;7.484;2023-06-14T10:31:08;34.50;58.80
19220;DHT22;9744;49.364;7.484;2023-06-14T10:33:39;34.60;59.00
19220;DHT22;9744;49.364;7.484;2023-06-14T10:36:26;34.80;58.00
19220;DHT22;9744;49.364;7.484;2023-06-14T10:38:58;35.10;57.40
19220;DHT22;9744;49.364;7.484;2023-06-14T10:41:27;35.30;57.90
19220;DHT22;9744;49.364;7.484;2023-06-14T10:46:59;35.50;58.10
19220;DHT22;9744;49.364;7.484;2023-06-14T10:49:42;35.50;58.10
19220;DHT22;9744;49.364;7.484;2023-06-14T10:52:12;35.50;58.00
19220;DHT22;9744;49.364;7.484;2023-06-14T10:55:06;35.40;58.50
19220;DHT22;9744;49.364;7.484;2023-06-14T10:57:38;35.40;57.80
19220;DHT22;9744;49.364;7.484;2023-06-14T11:00:07;35.40;58.20
19220;DHT22;9744;49.364;7.484;2023-06-14T11:05:57;35.50;57.60
19220;DHT22;9744;49.364;7.484;2023-06-14T11:11:22;35.60;58.40
19220;DHT22;9744;49.364;7.484;2023-06-14T11:13:51;35.70;58.30
19220;DHT22;9744;49.364;7.484;2023-06-14T11:16:18;35.80;58.20
19220;DHT22;9744;49.364;7.484;2023-06-14T11:18:46;35.90;58.30
19220;DHT22;9744;49.364;7.484;2023-06-14T11:21:19;36.00;58.40
19220;DHT22;9744;49.364;7.484;2023-06-14T11:23:52;35.90;57.60
19220;DHT22;9744;49.364;7.484;2023-06-14T11:26:48;35.90;57.60
19220;DHT22;9744;49.364;7.484;2023-06-14T11:29:16;35.90;57.30
19220;DHT22;9744;49.364;7.484;2023-06-14T11:31:47;36.00;56.50
19220;DHT22;9744;49.364;7.484;2023-06-14T11:34:15;36.20;56.50
19220;DHT22;9744;49.364;7.484;2023-06-14T11:37:14;36.40;56.70
19220;DHT22;9744;49.364;7.484;2023-06-14T11:39:43;36.30;56.40
19220;DHT22;9744;49.364;7.484;2023-06-14T11:42:14;36.20;55.70
19220;DHT22;9744;49.364;7.484;2023-06-14T11:44:41;36.20;56.30
19220;DHT22;9744;49.364;7.484;2023-06-14T11:47:09;36.20;56.70
19220;DHT22;9744;49.364;7.484;2023-06-14T11:49:36;36.10;56.90
19220;DHT22;9744;49.364;7.484;2023-06-14T11:52:04;36.20;56.20
19220;DHT22;9744;49.364;7.484;2023-06-14T11:54:34;36.30;55.90
19220;DHT22;9744;49.364;7.484;2023-06-14T11:57:02;36.30;56.60
19220;DHT22;9744;49.364;7.484;2023-06-14T11:59:30;36.20;56.20
19220;DHT22;9744;49.364;7.484;2023-06-14T12:01:58;36.10;56.10
19220;DHT22;9744;49.364;7.484;2023-06-14T12:04:27;36.00;56.50
19220;DHT22;9744;49.364;7.484;2023-06-14T12:06:54;35.90;56.50
19220;DHT22;9744;49.364;7.484;2023-06-14T12:09:23;35.90;56.00
19220;DHT22;9744;49.364;7.484;2023-06-14T12:12:00;36.00;55.90
19220;DHT22;9744;49.364;7.484;2023-06-14T12:14:28;36.10;56.10
19220;DHT22;9744;49.364;7.484;2023-06-14T12:17:04;36.10;55.50
19220;DHT22;9744;49.364;7.484;2023-06-14T12:19:33;36.20;55.70
19220;DHT22;9744;49.364;7.484;2023-06-14T12:22:00;36.20;55.30
19220;DHT22;9744;49.364;7.484;2023-06-14T12:24:31;36.30;55.50
19220;DHT22;9744;49.364;7.484;2023-06-14T12:27:00;36.20;55.10
19220;DHT22;9744;49.364;7.484;2023-06-14T12:29:30;36.10;55.30
19220;DHT22;9744;49.364;7.484;2023-06-14T12:31:57;36.10;55.40
19220;DHT22;9744;49.364;7.484;2023-06-14T12:34:25;36.00;55.40
19220;DHT22;9744;49.364;7.484;2023-06-14T12:36:53;36.00;55.10
19220;DHT22;9744;49.364;7.484;2023-06-14T12:39:20;36.00;55.50
19220;DHT22;9744;49.364;7.484;2023-06-14T12:41:48;36.00;56.10
19220;DHT22;9744;49.364;7.484;2023-06-14T12:44:17;35.90;55.90
19220;DHT22;9744;49.364;7.484;2023-06-14T12:46:45;35.90;55.80
19220;DHT22;9744;49.364;7.484;2023-06-14T12:49:13;36.00;55.40
19220;DHT22;9744;49.364;7.484;2023-06-14T12:51:41;36.10;55.00
19220;DHT22;9744;49.364;7.484;2023-06-14T12:54:08;35.90;54.70
19220;DHT22;9744;49.364;7.484;2023-06-14T12:56:35;36.00;55.20
19220;DHT22;9744;49.364;7.484;2023-06-14T12:59:03;35.90;55.10
19220;DHT22;9744;49.364;7.484;2023-06-14T13:01:31;35.90;55.20
19220;DHT22;9744;49.364;7.484;2023-06-14T13:03:59;35.80;55.50
19220;DHT22;9744;49.364;7.484;2023-06-14T13:06:26;35.80;56.50
19220;DHT22;9744;49.364;7.484;2023-06-14T13:08:55;35.80;56.50
19220;DHT22;9744;49.364;7.484;2023-06-14T13:11:23;35.70;55.10
19220;DHT22;9744;49.364;7.484;2023-06-14T13:13:54;35.70;56.20
19220;DHT22;9744;49.364;7.484;2023-06-14T13:16:21;35.70;56.10
19220;DHT22;9744;49.364;7.484;2023-06-14T13:18:50;35.70;55.90
19220;DHT22;9744;49.364;7.484;2023-06-14T13:21:17;35.90;56.00
19220;DHT22;9744;49.364;7.484;2023-06-14T13:23:44;36.00;55.10
19220;DHT22;9744;49.364;7.484;2023-06-14T13:26:12;35.80;55.70
19220;DHT22;9744;49.364;7.484;2023-06-14T13:28:39;35.80;55.70
19220;DHT22;9744;49.364;7.484;2023-06-14T13:31:06;35.70;55.90
19220;DHT22;9744;49.364;7.484;2023-06-14T13:33:33;35.70;55.70
19220;DHT22;9744;49.364;7.484;2023-06-14T13:36:02;35.70;56.70
19220;DHT22;9744;49.364;7.484;2023-06-14T13:38:30;35.80;56.20
19220;DHT22;9744;49.364;7.484;2023-06-14T13:40:57;35.90;55.40
19220;DHT22;9744;49.364;7.484;2023-06-14T13:43:40;35.90;55.70
19220;DHT22;9744;49.364;7.484;2023-06-14T13:46:08;35.90;55.00
19220;DHT22;9744;49.364;7.484;2023-06-14T13:48:42;35.80;56.40
19220;DHT22;9744;49.364;7.484;2023-06-14T13:51:10;35.80;55.60
19220;DHT22;9744;49.364;7.484;2023-06-14T13:53:38;35.80;56.30
19220;DHT22;9744;49.364;7.484;2023-06-14T13:56:05;36.00;55.90
19220;DHT22;9744;49.364;7.484;2023-06-14T13:58:33;36.20;55.80
19220;DHT22;9744;49.364;7.484;2023-06-14T14:01:01;36.40;55.90
19220;DHT22;9744;49.364;7.484;2023-06-14T14:03:28;36.60;55.70
19220;DHT22;9744;49.364;7.484;2023-06-14T14:05:56;36.80;55.40
19220;DHT22;9744;49.364;7.484;2023-06-14T14:08:25;36.90;56.10
19220;DHT22;9744;49.364;7.484;2023-06-14T14:10:53;36.90;56.00
19220;DHT22;9744;49.364;7.484;2023-06-14T14:13:22;36.80;55.60
19220;DHT22;9744;49.364;7.484;2023-06-14T14:15:49;36.60;55.40
19220;DHT22;9744;49.364;7.484;2023-06-14T14:18:19;36.50;55.90
19220;DHT22;9744;49.364;7.484;2023-06-14T14:20:47;36.60;56.20
19220;DHT22;9744;49.364;7.484;2023-06-14T14:23:14;36.60;56.10
19220;DHT22;9744;49.364;7.484;2023-06-14T14:25:43;36.80;55.40
19220;DHT22;9744;49.364;7.484;2023-06-14T14:28:10;36.80;55.90
19220;DHT22;9744;49.364;7.484;2023-06-14T14:30:39;36.90;55.80
19220;DHT22;9744;49.364;7.484;2023-06-14T14:33:07;36.80;55.60
19220;DHT22;9744;49.364;7.484;2023-06-14T14:35:34;36.80;55.90
19220;DHT22;9744;49.364;7.484;2023-06-14T14:38:01;36.70;55.30
19220;DHT22;9744;49.364;7.484;2023-06-14T14:40:30;36.60;54.40
19220;DHT22;9744;49.364;7.484;2023-06-14T14:42:59;36.10;54.50
19220;DHT22;9744;49.364;7.484;2023-06-14T14:45:26;35.50;54.50
19220;DHT22;9744;49.364;7.484;2023-06-14T14:47:54;34.90;55.00
19220;DHT22;9744;49.364;7.484;2023-06-14T14:50:22;34.80;56.10
19220;DHT22;9744;49.364;7.484;2023-06-14T14:52:49;34.80;56.40
19220;DHT22;9744;49.364;7.484;2023-06-14T14:55:16;35.00;56.30
19220;DHT22;9744;49.364;7.484;2023-06-14T14:57:45;35.10;55.20
19220;DHT22;9744;49.364;7.484;2023-06-14T15:00:14;34.80;55.50
19220;DHT22;9744;49.364;7.484;2023-06-14T15:02:42;34.70;55.60
19220;DHT22;9744;49.364;7.484;2023-06-14T15:05:09;34.70;55.60
19220;DHT22;9744;49.364;7.484;2023-06-14T15:07:37;34.80;56.20
19220;DHT22;9744;49.364;7.484;2023-06-14T15:10:07;34.80;55.80
19220;DHT22;9744;49.364;7.484;2023-06-14T15:12:34;34.90;56.60
19220;DHT22;9744;49.364;7.484;2023-06-14T15:15:02;35.00;56.30
19220;DHT22;9744;49.364;7.484;2023-06-14T15:17:31;35.20;56.50
19220;DHT22;9744;49.364;7.484;2023-06-14T15:19:58;35.30;56.10
19220;DHT22;9744;49.364;7.484;2023-06-14T15:22:26;35.20;56.10
19220;DHT22;9744;49.364;7.484;2023-06-14T15:24:53;35.20;55.70
19220;DHT22;9744;49.364;7.484;2023-06-14T15:27:20;35.00;55.40
19220;DHT22;9744;49.364;7.484;2023-06-14T15:29:48;34.90;55.50
19220;DHT22;9744;49.364;7.484;2023-06-14T15:32:15;34.70;55.70
19220;DHT22;9744;49.364;7.484;2023-06-14T15:34:44;34.90;55.90
19220;DHT22;9744;49.364;7.484;2023-06-14T15:37:11;35.00;55.70
19220;DHT22;9744;49.364;7.484;2023-06-14T15:39:38;35.20;55.80
19220;DHT22;9744;49.364;7.484;2023-06-14T15:42:06;35.30;55.70
19220;DHT22;9744;49.364;7.484;2023-06-14T15:44:34;35.30;55.90
19220;DHT22;9744;49.364;7.484;2023-06-14T15:47:02;35.10;56.00
19220;DHT22;9744;49.364;7.484;2023-06-14T15:49:29;35.30;56.40
19220;DHT22;9744;49.364;7.484;2023-06-14T15:51:58;35.40;56.30
19220;DHT22;9744;49.364;7.484;2023-06-14T15:54:26;35.60;56.30
19220;DHT22;9744;49.364;7.484;2023-06-14T15:56:54;35.90;56.20
19220;DHT22;9744;49.364;7.484;2023-06-14T15:59:21;36.00;56.20
19220;DHT22;9744;49.364;7.484;2023-06-14T16:01:49;35.90;56.00
19220;DHT22;9744;49.364;7.484;2023-06-14T16:04:16;35.60;55.70
19220;DHT22;9744;49.364;7.484;2023-06-14T16:06:43;35.50;56.40
19220;DHT22;9744;49.364;7.484;2023-06-14T16:09:12;35.20;55.90